Time;durP1;ratioP1;P1;durP2;ratioP2;P2;SDS_P1;SDS_P2;PMS_P1;PMS_P2;Temp;Humidity;BMP_temperature;BMP_pressure;BME280_temperature;BME280_humidity;BME280_pressure;Samples;Min_cycle;Max_cycle;Signal;HPM_P1;HPM_P2
2022/12/24 00:01:54;;;;;;;8.75;5.38;;;;;;;5.95;100.00;99621.13;6142283;23;20020;-79
2022/12/24 00:04:24;;;;;;;7.88;5.22;;;;;;;5.97;100.00;99623.69;6191875;23;20015;-78
2022/12/24 00:06:51;;;;;;;5.85;5.28;;;;;;;5.96;100.00;99630.66;6167543;23;20020;-78
2022/12/24 00:09:19;;;;;;;6.15;4.75;;;;;;;5.95;100.00;99634.09;6191525;23;20008;-78
2022/12/24 00:11:46;;;;;;;7.25;4.28;;;;;;;5.93;100.00;99642.78;6191806;23;20017;-78
2022/12/24 00:14:12;;;;;;;5.50;4.75;;;;;;;5.90;100.00;99635.03;6188697;23;20044;-78
2022/12/24 00:16:39;;;;;;;6.00;4.75;;;;;;;5.91;100.00;99632.41;6188533;23;20017;-78
2022/12/24 00:19:06;;;;;;;10.68;5.10;;;;;;;5.93;100.00;99630.69;6188957;23;20046;-79
2022/12/24 00:21:32;;;;;;;7.63;5.68;;;;;;;5.94;100.00;99634.13;6186990;23;20457;-80
2022/12/24 00:24:00;;;;;;;7.13;4.40;;;;;;;5.92;100.00;99615.09;6187281;23;20021;-78
2022/12/24 00:26:30;;;;;;;6.18;4.70;;;;;;;5.87;100.00;99617.72;6187351;23;20016;-79
2022/12/24 00:28:57;;;;;;;5.75;4.65;;;;;;;5.82;100.00;99614.28;6189442;23;20055;-78
2022/12/24 00:31:24;;;;;;;6.22;5.00;;;;;;;5.76;100.00;99620.38;6189021;23;20048;-77
2022/12/24 00:33:54;;;;;;;5.93;4.72;;;;;;;5.72;100.00;99629.06;6187267;23;20340;-78
2022/12/24 00:41:24;;;;;;;6.80;4.82;;;;;;;5.78;100.00;99635.97;6209712;23;20031;-79
2022/12/24 00:44:08;;;;;;;5.55;3.97;;;;;;;5.72;100.00;99625.59;6043464;23;20012;-77
2022/12/24 00:46:37;;;;;;;6.88;4.93;;;;;;;5.70;100.00;99627.34;6186539;23;20127;-79
2022/12/24 00:49:05;;;;;;;5.70;4.22;;;;;;;5.66;100.00;99631.69;6189148;23;20017;-78
2022/12/24 00:51:32;;;;;;;6.38;4.88;;;;;;;5.67;100.00;99635.16;6196144;23;20437;-80
2022/12/24 00:53:59;;;;;;;6.47;5.15;;;;;;;5.66;100.00;99638.59;6152900;23;20703;-78
2022/12/24 00:56:27;;;;;;;7.63;5.70;;;;;;;5.66;100.00;99657.66;6131717;23;20021;-80
2022/12/24 00:58:54;;;;;;;7.05;5.72;;;;;;;5.66;100.00;99651.59;6181913;23;20016;-79
2022/12/24 01:01:26;;;;;;;6.25;5.30;;;;;;;5.64;100.00;99638.63;6179010;23;20072;-79
2022/12/24 01:05:09;;;;;;;10.70;6.65;;;;;;;5.62;100.00;99645.56;6155642;23;20352;-80
2022/12/24 01:06:42;;;;;;;7.75;5.65;;;;;;;5.64;100.00;99654.19;6131331;23;20037;-78
2022/12/24 01:09:10;;;;;;;10.77;6.00;;;;;;;5.63;100.00;99650.75;6152968;23;20091;-78
2022/12/24 01:11:39;;;;;;;10.18;6.72;;;;;;;5.62;100.00;99655.97;6154480;23;20518;-81
2022/12/24 01:14:06;;;;;;;9.95;7.10;;;;;;;5.65;100.00;99662.88;6178832;23;20009;-76
2022/12/24 01:16:33;;;;;;;8.20;7.22;;;;;;;5.65;100.00;99666.31;6152646;23;20009;-79
2022/12/24 01:19:04;;;;;;;11.75;6.78;;;;;;;5.67;100.00;99666.31;6152046;23;20017;-78
2022/12/24 01:21:35;;;;;;;10.07;6.55;;;;;;;5.68;100.00;99675.81;6154433;23;20325;-79
2022/12/24 01:24:02;;;;;;;7.65;6.22;;;;;;;5.70;100.00;99680.16;6179172;23;20037;-79
2022/12/24 01:30:28;;;;;;;8.68;5.78;;;;;;;5.73;100.00;99676.66;5952347;24;20020;-78
2022/12/24 01:33:11;;;;;;;9.07;6.00;;;;;;;5.72;100.00;99678.41;5930610;24;20344;-79
2022/12/24 01:45:51;;;;;;;8.85;6.22;;;;;;;5.72;100.00;99685.31;6153785;23;20012;-78
2022/12/24 01:48:23;;;;;;;8.18;5.53;;;;;;;5.73;100.00;99687.06;6130926;23;20033;-79
2022/12/24 01:51:15;;;;;;;11.02;6.65;;;;;;;5.75;100.00;99686.19;6156476;23;20583;-77
2022/12/24 01:53:45;;;;;;;9.25;6.32;;;;;;;5.76;100.00;99687.03;6193779;23;20017;-79
2022/12/24 01:56:15;;;;;;;6.28;5.28;;;;;;;5.79;100.00;99687.03;6183384;23;20103;-79
2022/12/24 01:58:48;;;;;;;8.13;6.25;;;;;;;5.83;100.00;99685.25;6185772;23;20004;-78
2022/12/24 02:01:15;;;;;;;8.13;6.70;;;;;;;5.86;100.00;99698.25;6160777;23;20035;-79
2022/12/24 02:03:43;;;;;;;8.35;6.50;;;;;;;5.90;100.00;99689.56;6185273;23;20088;-78
2022/12/24 02:06:11;;;;;;;8.60;5.55;;;;;;;5.93;100.00;99685.22;6183782;23;20428;-76
2022/12/24 02:08:41;;;;;;;7.45;5.68;;;;;;;5.96;100.00;99692.13;6185429;23;20012;-77
2022/12/24 02:11:17;;;;;;;9.55;6.60;;;;;;;6.06;100.00;99690.38;6185453;23;20012;-78
2022/12/24 02:13:50;;;;;;;7.57;5.40;;;;;;;6.10;100.00;99689.47;6186383;23;20013;-77
2022/12/24 02:16:54;;;;;;;8.32;5.60;;;;;;;6.17;100.00;99688.56;6185070;23;20020;-77
2022/12/24 02:19:57;;;;;;;9.05;4.97;;;;;;;6.26;100.00;99691.09;6187450;23;20099;-77
2022/12/24 02:23:07;;;;;;;9.73;4.90;;;;;;;6.51;100.00;99693.53;6213538;23;20016;-77
2022/12/24 02:26:24;;;;;;;9.98;4.93;;;;;;;6.71;100.00;99702.91;6188086;23;20084;-77
2022/12/24 02:29:33;;;;;;;9.38;4.90;;;;;;;6.94;100.00;99706.16;6187159;23;20017;-78
2022/12/24 02:32:17;;;;;;;11.18;3.80;;;;;;;7.14;100.00;99707.69;6188209;23;20092;-77
2022/12/24 02:34:51;;;;;;;13.13;4.30;;;;;;;7.37;100.00;99711.81;6187975;23;20016;-77
2022/12/24 02:37:32;;;;;;;9.98;3.83;;;;;;;7.54;100.00;99712.47;6163009;23;20071;-77
2022/12/24 02:40:06;;;;;;;10.27;3.45;;;;;;;7.64;100.00;99712.38;6188495;23;20012;-78
2022/12/24 02:42:40;;;;;;;10.98;3.28;;;;;;;7.75;100.00;99718.31;6214095;23;20008;-79
2022/12/24 02:45:32;;;;;;;15.00;3.28;;;;;;;7.82;100.00;99708.69;6211868;23;20067;-77
2022/12/24 02:47:59;;;;;;;7.70;3.15;;;;;;;7.84;100.00;99709.53;6176027;23;20462;-80
2022/12/24 02:50:26;;;;;;;10.85;2.97;;;;;;;7.86;100.00;99716.44;6161264;23;20013;-79
2022/12/24 02:52:53;;;;;;;10.40;3.38;;;;;;;7.91;100.00;99719.84;6185885;23;20092;-78
2022/12/24 02:55:41;;;;;;;6.68;3.15;;;;;;;7.93;100.00;99715.47;6186522;23;20013;-77
2022/12/24 02:58:22;;;;;;;6.97;2.47;;;;;;;7.94;100.00;99725.00;6185889;23;20012;-76
2022/12/24 03:01:16;;;;;;;10.15;3.38;;;;;;;7.95;100.00;99731.97;6210440;23;20039;-77
2022/12/24 03:04:03;;;;;;;8.73;3.25;;;;;;;7.98;100.00;99725.84;6161282;23;20027;-77
2022/12/24 03:06:51;;;;;;;11.25;3.70;;;;;;;8.05;100.00;99721.41;6213631;23;20016;-77
2022/12/24 03:09:43;;;;;;;6.97;3.10;;;;;;;8.07;100.00;99737.88;6187971;23;20019;-78
2022/12/24 03:12:24;;;;;;;13.10;4.38;;;;;;;8.15;100.00;99745.59;6202154;23;20004;-78
2022/12/24 03:14:51;;;;;;;13.30;3.50;;;;;;;8.15;100.00;99745.59;6217931;23;20001;-78
2022/12/24 03:17:19;;;;;;;14.20;3.08;;;;;;;8.14;100.00;99744.75;6175291;23;20023;-78
2022/12/24 03:19:47;;;;;;;10.45;2.63;;;;;;;8.23;100.00;99755.03;6189618;23;20013;-78
2022/12/24 03:22:16;;;;;;;6.38;2.03;;;;;;;8.24;100.00;99755.91;6187698;23;20087;-78
2022/12/24 03:24:42;;;;;;;12.43;2.28;;;;;;;8.17;100.00;99756.88;6188418;23;20367;-77
2022/12/24 03:27:13;;;;;;;9.00;2.35;;;;;;;8.20;100.00;99757.69;6214003;23;20016;-76
2022/12/24 03:29:40;;;;;;;6.18;2.15;;;;;;;8.24;100.00;99763.75;6188684;23;20312;-77
2022/12/24 03:32:08;;;;;;;6.28;2.33;;;;;;;8.23;100.00;99765.47;6187178;23;20390;-77
2022/12/24 03:34:34;;;;;;;10.10;2.95;;;;;;;8.22;100.00;99773.31;6187628;23;20009;-77
2022/12/24 03:37:01;;;;;;;10.15;2.47;;;;;;;8.26;100.00;99772.38;6161457;23;20012;-77
2022/12/24 03:39:27;;;;;;;12.30;3.00;;;;;;;8.25;100.00;99776.75;6162450;23;20020;-77
2022/12/24 03:41:54;;;;;;;10.75;2.67;;;;;;;8.26;100.00;99780.22;6213384;23;20016;-77
2022/12/24 03:44:20;;;;;;;12.55;2.60;;;;;;;8.30;100.00;99788.84;6187338;23;20430;-77
2022/12/24 03:46:47;;;;;;;15.32;3.85;;;;;;;8.35;100.00;99784.44;6161802;23;20044;-77
2022/12/24 03:49:14;;;;;;;10.75;2.60;;;;;;;8.37;100.00;99785.25;6161488;23;20023;-76
2022/12/24 03:51:40;;;;;;;9.13;2.63;;;;;;;8.36;100.00;99794.00;6212862;23;20071;-77
2022/12/24 03:54:07;;;;;;;10.02;2.45;;;;;;;8.37;100.00;99796.56;6186391;23;20020;-76
2022/12/24 03:56:33;;;;;;;12.23;2.95;;;;;;;8.35;100.00;99808.75;6185900;23;20797;-76
2022/12/24 03:59:01;;;;;;;13.63;3.25;;;;;;;8.37;100.00;99804.41;6161468;23;20016;-76
2022/12/24 04:01:32;;;;;;;11.38;3.10;;;;;;;8.49;100.00;99815.59;6161286;23;20617;-76
2022/12/24 04:03:59;;;;;;;16.27;3.03;;;;;;;8.56;100.00;99814.59;6162961;23;20027;-77
2022/12/24 04:06:25;;;;;;;9.90;2.30;;;;;;;8.53;100.00;99835.53;6187196;23;20032;-76
2022/12/24 04:08:52;;;;;;;9.15;2.45;;;;;;;8.48;100.00;99830.34;6186888;23;20040;-76
2022/12/24 04:11:18;;;;;;;11.18;2.97;;;;;;;8.41;100.00;99832.16;6185935;23;20021;-78
2022/12/24 04:13:45;;;;;;;7.88;2.83;;;;;;;8.39;100.00;99843.50;6160861;23;20432;-77
2022/12/24 04:16:15;;;;;;;10.60;2.50;;;;;;;8.34;100.00;99848.75;6186595;23;20012;-76
2022/12/24 04:18:43;;;;;;;12.40;3.08;;;;;;;8.27;100.00;99847.97;6188077;23;20012;-76
2022/12/24 04:21:10;;;;;;;17.67;2.97;;;;;;;8.30;100.00;99847.06;6187203;23;20027;-76
2022/12/24 04:23:38;;;;;;;11.40;3.78;;;;;;;8.39;100.00;99846.94;6186732;23;20012;-76
2022/12/24 04:26:07;;;;;;;18.27;4.28;;;;;;;8.41;100.00;99839.13;6210043;23;20019;-76
2022/12/24 04:28:35;;;;;;;11.65;2.53;;;;;;;8.44;100.00;99857.34;6186505;23;20009;-76
2022/12/24 04:31:09;;;;;;;19.83;3.63;;;;;;;8.46;100.00;99855.63;6213218;23;20012;-76
2022/12/24 04:33:37;;;;;;;15.90;3.55;;;;;;;8.46;100.00;99870.38;6186258;23;20625;-77
2022/12/24 04:36:06;;;;;;;15.00;2.88;;;;;;;8.45;100.00;99866.91;6162104;23;20710;-76
2022/12/24 04:38:34;;;;;;;13.40;2.55;;;;;;;8.47;100.00;99872.13;6161406;23;20024;-76
2022/12/24 04:41:08;;;;;;;11.75;3.70;;;;;;;8.53;100.00;99872.91;6185016;23;20048;-78
2022/12/24 04:43:34;;;;;;;12.45;3.03;;;;;;;8.53;100.00;99872.91;6159493;23;20016;-77
2022/12/24 04:46:13;;;;;;;16.95;3.28;;;;;;;8.40;100.00;99873.91;6183323;23;20067;-77
2022/12/24 04:48:41;;;;;;;15.48;3.50;;;;;;;8.25;100.00;99872.34;6187059;23;20378;-77
2022/12/24 04:51:09;;;;;;;12.82;2.75;;;;;;;8.20;100.00;99869.81;6187267;23;20428;-77
2022/12/24 04:53:36;;;;;;;9.68;2.70;;;;;;;8.16;100.00;99877.66;6185520;23;20021;-76
2022/12/24 04:56:03;;;;;;;11.00;3.08;;;;;;;8.17;100.00;99882.84;6211270;23;20047;-76
2022/12/24 04:58:30;;;;;;;18.40;3.75;;;;;;;8.31;100.00;99889.69;6185516;23;20020;-76
2022/12/24 05:00:56;;;;;;;9.43;3.50;;;;;;;8.35;100.00;99892.22;6185479;23;20474;-77
2022/12/24 05:03:23;;;;;;;7.53;2.38;;;;;;;8.38;100.00;99884.38;6184883;23;20013;-76
2022/12/24 05:05:50;;;;;;;11.95;3.28;;;;;;;8.40;100.00;99884.34;6186084;23;20011;-76
2022/12/24 05:08:20;;;;;;;14.70;2.58;;;;;;;8.39;100.00;99880.00;6182558;23;20095;-78
2022/12/24 05:10:56;;;;;;;10.52;2.22;;;;;;;8.48;100.00;99892.97;6184632;23;20028;-77
2022/12/24 05:13:28;;;;;;;12.05;3.25;;;;;;;8.47;100.00;99904.25;6184722;23;20009;-76
2022/12/24 05:15:55;;;;;;;9.80;2.72;;;;;;;8.56;100.00;99906.75;6186241;23;20044;-76
2022/12/24 05:18:22;;;;;;;10.80;2.55;;;;;;;8.51;100.00;99915.53;6160521;23;20012;-76
2022/12/24 05:20:51;;;;;;;14.35;2.72;;;;;;;8.51;100.00;99924.22;6184823;23;20017;-76
2022/12/24 05:26:28;;;;;;;8.77;2.63;;;;;;;8.48;100.00;99934.69;6188488;23;20009;-76
2022/12/24 05:29:00;;;;;;;17.73;4.33;;;;;;;8.42;100.00;99933.00;6185725;23;20009;-76
2022/12/24 05:31:34;;;;;;;12.45;3.92;;;;;;;8.44;100.00;99938.19;6161060;23;20020;-76
2022/12/24 05:34:05;;;;;;;10.70;3.40;;;;;;;8.41;100.00;99946.91;6188136;23;20020;-77
2022/12/24 05:39:18;;;;;;;16.42;3.90;;;;;;;8.40;100.00;99958.22;6180986;23;20072;-80
2022/12/24 05:41:47;;;;;;;9.88;3.55;;;;;;;8.39;100.00;99968.69;6189286;23;20091;-78
2022/12/24 05:44:17;;;;;;;11.90;3.53;;;;;;;8.19;100.00;99959.31;6187269;23;20012;-79
2022/12/24 05:46:46;;;;;;;18.17;3.25;;;;;;;8.04;100.00;99973.34;6212524;23;20012;-79
2022/12/24 05:49:14;;;;;;;19.55;4.00;;;;;;;7.93;100.00;99970.84;6161624;23;20012;-80
2022/12/24 05:51:41;;;;;;;16.10;3.30;;;;;;;7.86;100.00;99968.31;6184918;23;20022;-78
2022/12/24 05:54:11;;;;;;;16.00;3.97;;;;;;;7.77;100.00;99966.69;6211835;23;20016;-79
2022/12/24 05:56:38;;;;;;;17.45;4.43;;;;;;;7.74;100.00;99969.28;6186289;23;20025;-79
2022/12/24 05:59:05;;;;;;;13.38;3.55;;;;;;;7.62;100.00;99972.88;6162811;23;20021;-81
2022/12/24 06:01:32;;;;;;;14.00;3.70;;;;;;;7.56;100.00;99981.59;6187370;23;20020;-80
2022/12/24 06:03:59;;;;;;;15.23;3.63;;;;;;;7.64;100.00;99983.28;6210937;23;20013;-82
2022/12/24 06:06:31;;;;;;;21.17;4.47;;;;;;;7.67;100.00;99983.25;6162310;23;20027;-81
2022/12/24 06:08:59;;;;;;;14.98;5.35;;;;;;;7.80;100.00;99984.88;6187962;23;20079;-81
2022/12/24 06:11:28;;;;;;;16.52;3.97;;;;;;;7.83;100.00;99991.81;6190571;23;20035;-81
2022/12/24 06:13:57;;;;;;;18.02;5.90;;;;;;;7.84;100.00;99994.41;6189600;23;20487;-81
2022/12/24 06:16:28;;;;;;;15.27;4.50;;;;;;;7.85;100.00;100010.88;6165932;23;20043;-79
2022/12/24 06:18:55;;;;;;;16.00;4.47;;;;;;;7.83;100.00;99991.81;6165106;23;20009;-81
2022/12/24 06:21:27;;;;;;;22.65;4.97;;;;;;;7.89;100.00;100002.19;6165460;23;20503;-81
2022/12/24 06:24:11;;;;;;;;;;;;;;;;;;;;;
2022/12/24 06:31:45;;;;;;;22.27;6.70;;;;;;;7.87;100.00;100028.25;6096168;23;20049;-81
2022/12/24 06:39:11;;;;;;;25.30;4.07;;;;;;;8.00;100.00;100015.13;6076955;23;20061;-81
2022/12/24 06:41:38;;;;;;;18.30;6.47;;;;;;;8.03;100.00;100022.91;6158288;23;20012;-80
2022/12/24 06:44:08;;;;;;;22.75;4.57;;;;;;;8.03;100.00;100029.00;6186261;23;20012;-80
2022/12/24 06:46:37;;;;;;;19.02;4.97;;;;;;;8.12;100.00;100033.25;6162113;23;20016;-81
2022/12/24 06:49:04;;;;;;;17.13;4.55;;;;;;;8.15;100.00;100037.56;6162027;23;20012;-81
2022/12/24 06:51:30;;;;;;;14.90;3.95;;;;;;;8.10;100.00;100041.09;6186916;23;20020;-81
2022/12/24 06:53:57;;;;;;;19.20;5.60;;;;;;;8.02;100.00;100044.66;6162306;23;20044;-80
2022/12/24 06:56:24;;;;;;;16.55;4.78;;;;;;;7.97;100.00;100036.88;6185220;23;20096;-81
2022/12/24 06:58:50;;;;;;;26.85;4.63;;;;;;;7.89;100.00;100049.09;6161290;23;20024;-81
2022/12/24 07:01:23;;;;;;;16.25;4.35;;;;;;;7.87;100.00;100043.88;6185670;23;20462;-80
2022/12/24 07:03:51;;;;;;;13.80;4.60;;;;;;;7.92;100.00;100060.34;6185546;23;20083;-81
2022/12/24 07:06:26;;;;;;;22.25;4.03;;;;;;;7.99;100.00;100061.19;6158807;23;20051;-80
2022/12/24 07:08:54;;;;;;;20.95;3.92;;;;;;;7.90;100.00;100063.84;6186441;23;20103;-80
2022/12/24 07:11:22;;;;;;;12.98;3.63;;;;;;;7.90;100.00;100062.13;6210302;23;20095;-80
2022/12/24 07:13:48;;;;;;;20.95;5.07;;;;;;;7.88;100.00;100060.38;6185503;23;20023;-81
2022/12/24 07:16:16;;;;;;;17.20;3.78;;;;;;;7.72;100.00;100078.72;6184741;23;20080;-81
2022/12/24 07:18:50;;;;;;;16.05;3.65;;;;;;;7.58;100.00;100083.16;6213181;23;20008;-80
2022/12/24 07:21:17;;;;;;;14.38;3.40;;;;;;;7.70;100.00;100077.88;6163107;23;20008;-80
2022/12/24 07:23:44;;;;;;;22.08;4.15;;;;;;;7.79;100.00;100092.59;6159989;23;20016;-80
2022/12/24 07:26:11;;;;;;;17.13;3.63;;;;;;;7.95;100.00;100089.00;6184722;23;20013;-80
2022/12/24 07:28:38;;;;;;;13.23;3.88;;;;;;;7.99;100.00;100087.25;6136095;23;20082;-81
2022/12/24 07:31:05;;;;;;;16.60;3.88;;;;;;;8.00;100.00;100094.16;6186500;23;20025;-80
2022/12/24 07:33:34;;;;;;;14.73;3.80;;;;;;;7.99;100.00;100088.97;6214198;23;20034;-80
2022/12/24 07:36:06;;;;;;;16.38;3.42;;;;;;;7.94;100.00;100102.06;6188608;23;20016;-80
2022/12/24 07:38:36;;;;;;;17.80;3.53;;;;;;;7.90;100.00;100098.59;6188281;23;20009;-80
2022/12/24 07:41:03;;;;;;;11.20;3.63;;;;;;;7.74;100.00;100108.25;6215878;23;20009;-80
2022/12/24 07:43:32;;;;;;;10.80;3.50;;;;;;;7.71;100.00;100118.69;6216339;23;20016;-80
2022/12/24 07:46:01;;;;;;;17.33;4.18;;;;;;;7.62;100.00;100130.00;6195967;23;20027;-81
2022/12/24 07:48:30;;;;;;;14.82;3.78;;;;;;;7.66;100.00;100140.44;6199376;23;20009;-80
2022/12/24 07:50:57;;;;;;;20.45;3.97;;;;;;;7.61;100.00;100138.72;6214706;23;20001;-80
2022/12/24 07:53:26;;;;;;;12.43;3.95;;;;;;;7.63;100.00;100146.53;6217967;23;19996;-81
2022/12/24 07:55:55;;;;;;;20.70;3.85;;;;;;;7.63;100.00;100149.13;6243096;23;20009;-81
2022/12/24 07:58:22;;;;;;;16.67;3.65;;;;;;;7.60;100.00;100152.63;6230975;23;20011;-80
2022/12/24 08:01:23;;;;;;;15.80;3.88;;;;;;;7.63;100.00;100154.34;6170302;23;20008;-80
2022/12/24 08:03:53;;;;;;;12.77;3.03;;;;;;;7.65;100.00;100154.31;6166173;23;20042;-81
2022/12/24 08:06:23;;;;;;;23.88;4.55;;;;;;;7.62;100.00;100155.22;6190084;23;20025;-81
2022/12/24 08:08:50;;;;;;;23.20;6.88;;;;;;;7.58;100.00;100159.56;6189411;23;20103;-82
2022/12/24 08:11:16;;;;;;;11.27;4.32;;;;;;;7.57;100.00;100156.97;6190925;23;20595;-80
2022/12/24 08:16:28;;;;;;;15.05;3.83;;;;;;;7.61;100.00;100158.69;6211839;23;20013;-82
2022/12/24 08:18:56;;;;;;;8.88;3.42;;;;;;;7.70;100.00;100165.59;6190177;23;20088;-85
2022/12/24 08:21:23;;;;;;;12.50;3.15;;;;;;;7.81;100.00;100168.13;6189230;23;20394;-80
2022/12/24 08:23:51;;;;;;;19.90;3.42;;;;;;;7.89;100.00;100171.59;6189007;23;20039;-83
2022/12/24 08:26:18;;;;;;;19.00;3.53;;;;;;;7.99;100.00;100172.38;6188383;23;20099;-78
2022/12/24 08:28:44;;;;;;;18.15;3.55;;;;;;;8.10;100.00;100178.41;6163690;23;20082;-80
2022/12/24 08:31:14;;;;;;;25.20;5.75;;;;;;;8.13;100.00;100180.13;6190066;23;20806;-81
2022/12/24 08:33:42;;;;;;;19.48;4.25;;;;;;;8.15;100.00;100186.16;6163571;23;20079;-80
2022/12/24 08:36:10;;;;;;;11.20;4.70;;;;;;;8.15;100.00;100194.00;6163935;23;20040;-83
2022/12/24 08:38:50;;;;;;;20.27;4.00;;;;;;;8.16;100.00;100200.94;6189165;23;20027;-80
2022/12/24 08:41:19;;;;;;;18.27;5.68;;;;;;;8.15;100.00;100214.84;6166328;23;20028;-81
2022/12/24 08:43:50;;;;;;;21.63;5.80;;;;;;;8.10;100.00;100215.75;6194080;23;20012;-82
2022/12/24 08:46:18;;;;;;;21.92;4.00;;;;;;;7.99;100.00;100211.47;6215360;23;20024;-80
2022/12/24 08:48:45;;;;;;;20.83;4.13;;;;;;;7.95;100.00;100219.31;6187836;23;20070;-82
2022/12/24 08:51:12;;;;;;;16.05;4.63;;;;;;;7.91;100.00;100224.53;6164140;23;20016;-80
2022/12/24 08:53:41;;;;;;;22.20;5.00;;;;;;;7.82;100.00;100225.44;6190038;23;20013;-81
2022/12/24 08:56:12;;;;;;;17.92;3.70;;;;;;;7.67;100.00;100234.22;6211118;23;20071;-81
2022/12/24 08:58:39;;;;;;;18.15;4.00;;;;;;;7.60;100.00;100230.75;6191412;23;20019;-82
2022/12/24 09:01:19;;;;;;;14.98;4.32;;;;;;;7.52;100.00;100229.94;6194536;23;20510;-80
2022/12/24 09:03:48;;;;;;;17.50;5.18;;;;;;;7.42;100.00;100233.44;6166583;23;20031;-81
2022/12/24 09:06:17;;;;;;;16.50;5.15;;;;;;;7.37;100.00;100240.41;6165430;23;20040;-81
2022/12/24 09:08:43;;;;;;;11.15;4.35;;;;;;;7.27;100.00;100244.75;6167071;23;20016;-81
2022/12/24 09:11:15;;;;;;;18.55;4.70;;;;;;;7.29;100.00;100250.81;6195717;23;20023;-81
2022/12/24 09:13:43;;;;;;;17.42;6.25;;;;;;;7.27;100.00;100247.34;6168587;23;20313;-82
2022/12/24 09:19:06;;;;;;;27.48;6.88;;;;;;;7.22;100.00;100263.00;6196570;23;20092;-82
2022/12/24 09:21:36;;;;;;;32.90;7.07;;;;;;;7.31;100.00;100267.28;6198929;23;20012;-81
2022/12/24 09:24:05;;;;;;;27.17;6.40;;;;;;;7.35;100.00;100260.34;6201395;23;20016;-82
2022/12/24 09:26:36;;;;;;;23.50;7.97;;;;;;;7.38;100.00;100271.63;6171328;23;20008;-82
2022/12/24 09:29:03;;;;;;;18.23;7.35;;;;;;;7.49;100.00;100266.38;6169999;23;20016;-82
2022/12/24 09:31:30;;;;;;;26.70;7.00;;;;;;;7.59;100.00;100273.31;6196225;23;20026;-80
2022/12/24 09:33:56;;;;;;;27.73;7.63;;;;;;;7.65;100.00;100280.22;6171190;23;20023;-81
2022/12/24 09:36:34;;;;;;;22.88;7.50;;;;;;;7.70;100.00;100298.47;6195059;23;20013;-82
2022/12/24 09:39:03;;;;;;;25.20;7.10;;;;;;;7.81;100.00;100293.22;6220693;23;20044;-82
2022/12/24 09:42:20;;;;;;;25.70;7.45;;;;;;;7.92;100.00;100302.72;6192530;23;20017;-81
2022/12/24 09:44:57;;;;;;;24.92;6.88;;;;;;;8.18;100.00;100301.75;6216837;23;20020;-83
2022/12/24 09:47:32;;;;;;;20.05;6.82;;;;;;;8.37;100.00;100312.09;6164781;23;20013;-82
2022/12/24 09:50:02;;;;;;;15.90;6.85;;;;;;;8.53;100.00;100320.75;6214276;23;20092;-82
2022/12/24 09:52:35;;;;;;;31.77;7.88;;;;;;;8.65;100.00;100319.78;6166594;23;20306;-82
2022/12/24 09:55:14;;;;;;;;;;;;;;;8.74;100.00;100310.16;6166315;23;20016;-81
2022/12/24 10:01:14;;;;;;;17.27;5.15;;;;;;;8.78;100.00;100322.28;6169939;23;20019;-81
2022/12/24 10:03:42;;;;;;;25.83;5.97;;;;;;;8.80;100.00;100331.88;6202525;23;20016;-82
2022/12/24 10:07:11;;;;;;;15.32;5.07;;;;;;;8.88;100.00;100327.47;6189710;23;20024;-83
2022/12/24 10:10:09;;;;;;;30.30;5.20;;;;;;;9.06;100.00;100334.28;6169954;23;20017;-82
2022/12/24 10:12:47;;;;;;;21.40;5.97;;;;;;;9.16;100.00;100343.78;6140225;23;20390;-81
2022/12/24 10:15:29;;;;;;;14.35;4.75;;;;;;;9.22;100.00;100354.19;6187867;23;20012;-83
2022/12/24 10:18:39;;;;;;;15.38;5.47;;;;;;;9.26;100.00;100353.28;6187014;23;20083;-81
2022/12/24 10:21:56;;;;;;;14.55;4.70;;;;;;;9.32;100.00;100339.31;6189683;23;20044;-80
2022/12/24 10:24:56;;;;;;;17.63;5.32;;;;;;;9.33;100.00;100348.00;6210087;23;20375;-81
2022/12/24 10:27:31;;;;;;;20.55;5.90;;;;;;;9.38;100.00;100352.28;6188703;23;20012;-81
2022/12/24 10:30:22;;;;;;;21.38;5.60;;;;;;;9.40;100.00;100355.78;6188682;23;20024;-80
2022/12/24 10:32:53;;;;;;;21.52;4.40;;;;;;;9.43;100.00;100347.03;6138809;23;20016;-81
2022/12/24 10:35:35;;;;;;;21.00;5.13;;;;;;;9.50;100.00;100353.06;6184531;23;20024;-81
2022/12/24 10:38:03;;;;;;;16.17;5.13;;;;;;;9.50;100.00;100346.09;6186641;23;20039;-81
2022/12/24 10:40:41;;;;;;;19.77;5.38;;;;;;;9.52;100.00;100349.56;6185777;23;20025;-82
2022/12/24 10:43:24;;;;;;;12.93;4.15;;;;;;;9.53;100.00;100351.31;6161673;23;20104;-81
2022/12/24 10:45:58;;;;;;;25.52;8.65;;;;;;;9.58;100.00;100359.06;6184424;23;20251;-81
2022/12/24 10:48:44;;;;;;;15.85;4.40;;;;;;;9.61;100.00;100359.06;6159371;23;20008;-81
2022/12/24 10:51:18;;;;;;;23.63;9.45;;;;;;;9.57;100.00;100362.59;6185747;23;20371;-83
2022/12/24 10:53:58;;;;;;;15.57;4.63;;;;;;;9.61;100.00;100364.28;6211654;23;20023;-81
2022/12/24 10:56:26;;;;;;;17.05;5.78;;;;;;;9.58;100.00;100375.66;6183342;23;20013;-81
2022/12/24 10:58:55;;;;;;;12.02;4.57;;;;;;;9.58;100.00;100379.97;6184688;23;20016;-81
2022/12/24 11:01:46;;;;;;;15.90;4.90;;;;;;;9.58;100.00;100372.16;6161983;23;20027;-81
2022/12/24 11:04:23;;;;;;;8.40;4.60;;;;;;;9.68;100.00;100371.19;6184896;23;20016;-81
2022/12/24 11:07:06;;;;;;;14.55;4.70;;;;;;;9.63;100.00;100380.81;6183354;23;20013;-81
2022/12/24 11:09:42;;;;;;;12.65;4.47;;;;;;;9.57;100.00;100381.75;6215345;23;20091;-81
2022/12/24 11:12:38;;;;;;;10.07;3.50;;;;;;;9.48;100.00;100396.63;6180154;23;20024;-81
2022/12/24 11:15:21;;;;;;;13.48;4.45;;;;;;;9.36;100.00;100401.09;6158248;23;20070;-81
2022/12/24 11:18:02;;;;;;;13.00;3.83;;;;;;;9.38;100.00;100396.69;6185969;23;20017;-81
2022/12/24 11:20:33;;;;;;;11.43;4.45;;;;;;;9.25;100.00;100398.53;6162294;23;20013;-84
2022/12/24 11:23:02;;;;;;;35.70;16.10;;;;;;;9.21;100.00;100406.44;6187294;23;20024;-81
2022/12/24 11:25:31;;;;;;;15.48;5.72;;;;;;;9.13;100.00;100401.25;6188244;23;20012;-82
2022/12/24 11:28:32;;;;;;;10.23;4.07;;;;;;;9.11;100.00;100400.38;6165112;23;20016;-81
2022/12/24 11:31:04;;;;;;;13.95;4.07;;;;;;;9.14;100.00;100396.88;6189567;23;20025;-81
2022/12/24 11:33:32;;;;;;;12.50;4.45;;;;;;;9.09;100.00;100400.41;6161062;23;20021;-82
2022/12/24 11:36:11;;;;;;;15.43;4.82;;;;;;;9.14;100.00;100405.63;6184522;23;20024;-81
2022/12/24 11:38:38;;;;;;;18.55;4.78;;;;;;;9.14;100.00;100397.78;6186358;23;20440;-83
2022/12/24 11:41:08;;;;;;;17.13;6.00;;;;;;;9.12;100.00;100398.66;6162678;23;20016;-81
2022/12/24 11:43:44;;;;;;;15.25;5.45;;;;;;;9.12;100.00;100399.53;6188605;23;20656;-82
2022/12/24 11:46:27;;;;;;;21.67;4.53;;;;;;;9.09;100.00;100402.16;6164138;23;20548;-81
2022/12/24 11:53:21;;;;;;;13.77;4.80;;;;;;;9.13;100.00;100392.56;6214166;23;20095;-81
2022/12/24 11:56:08;;;;;;;16.45;4.50;;;;;;;9.19;100.00;100387.28;6167402;23;20044;-82
2022/12/24 11:59:23;;;;;;;14.82;4.45;;;;;;;9.16;100.00;100384.69;6162260;23;20052;-81
2022/12/24 12:02:33;;;;;;;11.85;5.78;;;;;;;9.04;100.00;100391.75;6137151;23;20024;-82
2022/12/24 12:05:11;;;;;;;17.00;4.40;;;;;;;8.99;100.00;100396.13;6187130;23;20016;-82
2022/12/24 12:07:39;;;;;;;10.55;3.70;;;;;;;8.96;100.00;100405.72;6187692;23;20130;-82
2022/12/24 12:10:37;;;;;;;7.70;2.65;;;;;;;8.90;100.00;100394.47;6188409;23;20028;-82
2022/12/24 12:13:33;;;;;;;9.30;2.75;;;;;;;8.86;100.00;100407.53;6187075;23;20020;-84
2022/12/24 12:16:26;;;;;;;8.60;2.78;;;;;;;8.78;100.00;100405.81;6164136;23;20028;-82
2022/12/24 12:19:03;;;;;;;17.27;3.70;;;;;;;8.73;100.00;100420.63;6234055;23;20027;-81
2022/12/24 12:21:46;;;;;;;7.03;2.40;;;;;;;8.74;100.00;100411.06;6200204;23;20020;-82
2022/12/24 12:24:34;;;;;;;4.50;3.53;;;;;;;8.78;100.00;100416.25;6165293;23;20012;-81
2022/12/24 12:27:14;;;;;;;10.55;2.83;;;;;;;8.80;100.00;100412.78;6186132;23;20020;-82
2022/12/24 12:30:12;;;;;;;9.80;2.95;;;;;;;8.80;100.00;100425.81;6186892;23;20023;-82
2022/12/24 12:32:51;;;;;;;12.60;4.38;;;;;;;8.96;100.00;100437.03;6186992;23;20027;-83
2022/12/24 12:35:35;;;;;;;12.55;4.00;;;;;;;9.05;100.00;100424.81;6185976;23;20090;-83
2022/12/24 12:38:06;;;;;;;10.48;3.88;;;;;;;9.03;100.00;100428.31;6186455;23;20024;-80
2022/12/24 12:41:09;;;;;;;4.38;2.60;;;;;;;8.93;100.00;100430.97;6160776;23;20514;-81
2022/12/24 12:44:28;;;;;;;6.85;2.97;;;;;;;8.98;100.00;100436.16;6211870;23;20043;-82